createdAt,value
2019-05-03T00:01:02.438Z,99.80
2019-05-03T00:03:33.095Z,99.70
2019-05-03T00:06:05.248Z,99.80
2019-05-03T00:08:35.887Z,99.90
2019-05-03T00:11:06.597Z,99.90
2019-05-03T00:13:37.113Z,99.90
2019-05-03T00:16:09.325Z,99.90
2019-05-03T00:18:39.797Z,99.90
2019-05-03T00:21:11.697Z,99.90
2019-05-03T00:23:43.413Z,99.90
2019-05-03T00:26:13.913Z,99.90
2019-05-03T00:28:44.377Z,99.90
2019-05-03T00:31:14.872Z,99.90
2019-05-03T00:33:46.977Z,99.90
2019-05-03T00:36:24.962Z,99.90
2019-05-03T00:38:57.068Z,99.90
2019-05-03T00:41:27.551Z,99.90
2019-05-03T00:43:58.043Z,99.90
2019-05-03T00:46:28.508Z,99.90
2019-05-03T00:48:58.994Z,99.90
2019-05-03T00:51:31.797Z,99.90
2019-05-03T00:54:02.373Z,99.90
2019-05-03T00:56:33.318Z,99.90
2019-05-03T00:59:04.487Z,99.90
2019-05-03T01:01:34.991Z,99.90
2019-05-03T01:04:05.622Z,99.90
2019-05-03T01:06:36.116Z,99.90
2019-05-03T01:09:08.964Z,99.90
2019-05-03T01:11:39.443Z,99.90
2019-05-03T01:14:11.910Z,99.90
2019-05-03T01:16:42.772Z,99.90
2019-05-03T01:19:13.372Z,99.90
2019-05-03T01:21:43.845Z,99.90
2019-05-03T01:24:14.343Z,99.90
2019-05-03T01:26:44.817Z,99.90
2019-05-03T01:29:15.316Z,99.90
2019-05-03T01:31:45.877Z,99.90
2019-05-03T01:34:16.348Z,99.90
2019-05-03T01:36:46.999Z,99.90
2019-05-03T01:39:17.464Z,99.90
2019-05-03T01:41:47.978Z,99.90
2019-05-03T01:44:18.441Z,99.90
2019-05-03T01:46:51.614Z,99.90
2019-05-03T01:49:23.842Z,99.90
2019-05-03T01:52:08.494Z,99.90
2019-05-03T01:54:38.964Z,99.90
2019-05-03T01:57:11.540Z,99.90
2019-05-03T01:59:42.600Z,99.90
2019-05-03T02:02:24.378Z,99.90
2019-05-03T02:07:52.011Z,99.90
2019-05-03T02:10:22.722Z,99.90
2019-05-03T02:12:53.257Z,99.90
2019-05-03T02:15:23.732Z,99.90
2019-05-03T02:17:55.437Z,99.90
2019-05-03T02:20:25.943Z,99.90
2019-05-03T02:22:56.416Z,99.90
2019-05-03T02:25:26.923Z,99.90
2019-05-03T02:27:57.392Z,99.90
2019-05-03T02:30:27.893Z,99.90
2019-05-03T02:32:58.365Z,99.90
2019-05-03T02:35:28.863Z,99.90
2019-05-03T02:37:59.357Z,99.90
2019-05-03T02:40:29.850Z,99.90
2019-05-03T02:43:17.978Z,99.90
2019-05-03T02:46:06.391Z,99.90
2019-05-03T02:48:45.735Z,99.90
2019-05-03T02:51:16.463Z,99.90
2019-05-03T02:53:47.043Z,99.90
2019-05-03T02:56:22.605Z,99.90
2019-05-03T02:58:50.500Z,99.90
2019-05-03T03:01:21.123Z,99.90
2019-05-03T03:03:55.822Z,99.90
2019-05-03T03:06:26.814Z,99.90
2019-05-03T03:09:00.633Z,99.90
2019-05-03T03:11:35.414Z,99.90
2019-05-03T03:14:05.961Z,99.90
2019-05-03T03:16:38.289Z,99.90
2019-05-03T03:19:08.857Z,99.90
2019-05-03T03:21:46.588Z,99.90
2019-05-03T03:24:20.077Z,99.90
2019-05-03T03:26:56.328Z,99.90
2019-05-03T03:29:29.028Z,99.90
2019-05-03T03:32:11.733Z,99.90
2019-05-03T03:35:02.974Z,99.90
2019-05-03T03:37:31.521Z,99.90
2019-05-03T03:40:02.137Z,99.90
2019-05-03T03:42:35.828Z,99.90
2019-05-03T03:45:06.443Z,99.90
2019-05-03T03:47:39.104Z,99.90
2019-05-03T03:50:09.796Z,99.90
2019-05-03T03:52:45.045Z,99.90
2019-05-03T03:55:15.950Z,99.90
2019-05-03T03:57:47.418Z,99.90
2019-05-03T04:00:18.106Z,99.90
2019-05-03T04:02:48.936Z,99.90
2019-05-03T04:05:19.482Z,99.90
2019-05-03T04:07:50.417Z,99.90
2019-05-03T04:10:20.889Z,99.90
2019-05-03T04:12:51.537Z,99.90
2019-05-03T04:15:26.131Z,99.90
2019-05-03T04:17:58.186Z,99.90
2019-05-03T04:20:31.824Z,99.90
2019-05-03T04:23:05.117Z,99.90
2019-05-03T04:25:35.852Z,99.90
2019-05-03T04:28:06.585Z,99.90
2019-05-03T04:30:37.105Z,99.90
2019-05-03T04:33:07.617Z,99.90
2019-05-03T04:35:38.083Z,99.90
2019-05-03T04:38:08.584Z,99.90
2019-05-03T04:40:39.081Z,99.90
2019-05-03T04:43:09.581Z,99.90
2019-05-03T04:45:40.079Z,99.90
2019-05-03T04:48:10.578Z,99.90
2019-05-03T04:50:41.064Z,99.90
2019-05-03T04:53:11.574Z,99.90
2019-05-03T04:55:42.080Z,99.90
2019-05-03T04:58:12.618Z,99.90
2019-05-03T05:00:43.122Z,99.90
2019-05-03T05:03:15.132Z,99.90
2019-05-03T05:05:45.852Z,99.90
2019-05-03T05:08:16.464Z,99.90
2019-05-03T05:10:46.931Z,99.90
2019-05-03T05:13:17.446Z,99.90
2019-05-03T05:15:47.951Z,99.90
2019-05-03T05:18:26.487Z,99.90
2019-05-03T05:21:01.229Z,99.90
2019-05-03T05:23:31.775Z,99.90
2019-05-03T05:26:05.575Z,99.90
2019-05-03T05:28:50.528Z,99.90
2019-05-03T05:31:21.025Z,99.90
2019-05-03T05:33:51.508Z,99.90
2019-05-03T05:36:22.003Z,99.90
2019-05-03T05:38:52.516Z,99.90
2019-05-03T05:41:24.482Z,99.90
2019-05-03T05:43:55.113Z,99.90
2019-05-03T05:46:27.278Z,99.90
2019-05-03T05:48:57.777Z,99.90
2019-05-03T05:51:28.264Z,99.90
2019-05-03T05:53:58.759Z,99.90
2019-05-03T05:56:35.428Z,99.90
2019-05-03T05:59:14.870Z,99.90
2019-05-03T06:01:47.136Z,99.90
2019-05-03T06:04:17.695Z,99.90
2019-05-03T06:06:49.822Z,99.90
2019-05-03T06:09:38.161Z,99.90
2019-05-03T06:12:10.474Z,99.90
2019-05-03T06:14:51.794Z,99.90
2019-05-03T06:17:24.567Z,99.90
2019-05-03T06:19:59.848Z,99.90
2019-05-03T06:22:32.061Z,99.90
2019-05-03T06:25:26.505Z,99.70
2019-05-03T06:27:57.290Z,99.30
2019-05-03T06:30:42.781Z,99.00
2019-05-03T06:33:14.927Z,98.90
2019-05-03T06:35:45.402Z,98.90
2019-05-03T06:38:17.443Z,99.20
2019-05-03T06:40:47.911Z,99.00
2019-05-03T06:43:18.406Z,98.90
2019-05-03T06:45:50.445Z,98.30
2019-05-03T06:48:22.288Z,98.00
2019-05-03T06:50:55.644Z,98.30
2019-05-03T06:53:25.673Z,98.10
2019-05-03T06:55:56.155Z,98.20
2019-05-03T06:58:33.062Z,99.10
2019-05-03T07:01:04.627Z,99.60
2019-05-03T07:03:36.915Z,99.90
2019-05-03T07:06:15.135Z,99.90
2019-05-03T07:08:56.349Z,99.10
2019-05-03T07:11:26.831Z,98.90
2019-05-03T07:13:57.386Z,96.90
2019-05-03T07:16:27.921Z,95.60
2019-05-03T07:18:58.687Z,95.90
2019-05-03T07:21:41.925Z,95.90
2019-05-03T07:24:14.501Z,95.90
2019-05-03T07:26:44.917Z,94.80
2019-05-03T07:29:15.476Z,92.00
2019-05-03T07:31:46.001Z,91.20
2019-05-03T07:34:16.552Z,90.90
2019-05-03T07:36:47.045Z,90.80
2019-05-03T07:39:17.585Z,91.30
2019-05-03T07:41:48.071Z,91.10
2019-05-03T07:44:18.543Z,89.90
2019-05-03T07:46:49.055Z,89.70
2019-05-03T07:49:19.541Z,90.20
2019-05-03T07:51:50.019Z,91.30
2019-05-03T07:54:20.505Z,90.50
2019-05-03T07:56:58.426Z,88.30
2019-05-03T07:59:28.927Z,89.80
2019-05-03T08:01:59.396Z,89.20
2019-05-03T08:04:29.911Z,91.50
2019-05-03T08:07:00.381Z,89.90
2019-05-03T08:09:30.873Z,90.20
2019-05-03T08:12:01.331Z,89.20
2019-05-03T08:14:32.597Z,88.40
2019-05-03T08:17:04.995Z,88.20
2019-05-03T08:19:35.805Z,88.60
2019-05-03T08:22:06.727Z,87.60
2019-05-03T08:24:37.207Z,85.70
2019-05-03T08:27:08.630Z,86.90
2019-05-03T08:29:39.096Z,87.30
2019-05-03T08:32:29.637Z,88.00
2019-05-03T08:35:15.261Z,87.80
2019-05-03T08:37:47.657Z,89.50
2019-05-03T08:40:19.074Z,89.80
2019-05-03T08:42:49.593Z,89.70
2019-05-03T08:45:20.089Z,89.30
2019-05-03T08:47:50.584Z,88.10
2019-05-03T08:50:21.669Z,88.70
2019-05-03T08:52:52.483Z,89.30
2019-05-03T08:55:25.009Z,88.70
2019-05-03T08:57:55.365Z,87.90
2019-05-03T09:00:27.451Z,88.50
2019-05-03T09:03:00.704Z,89.30
2019-05-03T09:05:31.213Z,89.20
2019-05-03T09:08:01.709Z,88.40
2019-05-03T09:10:35.239Z,85.60
2019-05-03T09:13:16.635Z,84.90
2019-05-03T09:15:49.648Z,79.90
2019-05-03T09:18:20.137Z,79.30
2019-05-03T09:20:50.619Z,79.30
2019-05-03T09:23:23.394Z,79.40
2019-05-03T09:25:54.797Z,76.60
2019-05-03T09:28:28.924Z,78.60
2019-05-03T09:30:57.629Z,81.50
2019-05-03T09:33:28.087Z,80.60
2019-05-03T09:35:58.593Z,81.50
2019-05-03T09:38:29.117Z,83.10
2019-05-03T09:40:59.631Z,80.80
2019-05-03T09:43:30.101Z,81.00
2019-05-03T09:46:00.591Z,80.50
2019-05-03T09:48:31.093Z,81.60
2019-05-03T09:51:02.103Z,81.40
2019-05-03T09:53:37.147Z,80.20
2019-05-03T09:56:07.611Z,79.30
2019-05-03T09:58:39.269Z,79.10
2019-05-03T10:01:12.182Z,77.20
2019-05-03T10:03:45.199Z,79.70
2019-05-03T10:06:17.612Z,78.80
2019-05-03T10:08:48.087Z,77.50
2019-05-03T10:11:18.538Z,76.20
2019-05-03T10:13:49.239Z,76.70
2019-05-03T10:16:21.592Z,78.40
2019-05-03T10:18:52.078Z,78.80
2019-05-03T10:21:25.754Z,79.50
2019-05-03T10:23:56.692Z,81.70
2019-05-03T10:26:27.724Z,82.70
2019-05-03T10:28:58.311Z,80.10
2019-05-03T10:31:30.449Z,81.80
2019-05-03T10:34:05.787Z,82.30
2019-05-03T10:36:36.433Z,80.80
2019-05-03T10:39:07.077Z,82.30
2019-05-03T10:41:37.659Z,80.70
2019-05-03T10:44:08.122Z,81.10
2019-05-03T10:46:39.116Z,83.20
2019-05-03T10:49:11.256Z,79.80
2019-05-03T10:51:45.234Z,80.80
2019-05-03T10:54:15.790Z,81.60
2019-05-03T10:56:55.491Z,81.20
2019-05-03T10:59:25.984Z,82.80
2019-05-03T11:01:58.120Z,81.60
2019-05-03T11:04:29.627Z,83.70
2019-05-03T11:07:00.181Z,84.10
2019-05-03T11:09:30.671Z,83.30
2019-05-03T11:12:05.352Z,83.80
2019-05-03T11:14:36.084Z,81.80
2019-05-03T11:17:06.768Z,80.80
2019-05-03T11:19:37.301Z,78.40
2019-05-03T11:22:07.868Z,76.90
2019-05-03T11:24:38.373Z,76.90
2019-05-03T11:27:10.514Z,75.60
2019-05-03T11:29:41.011Z,77.20
2019-05-03T11:32:15.777Z,75.90
2019-05-03T11:35:01.147Z,75.40
2019-05-03T11:37:46.755Z,70.60
2019-05-03T11:40:22.195Z,70.90
2019-05-03T11:42:57.324Z,66.70
2019-05-03T11:45:29.927Z,63.80
2019-05-03T11:48:00.447Z,66.20
2019-05-03T11:50:31.018Z,67.20
2019-05-03T11:53:01.508Z,66.40
2019-05-03T11:55:32.058Z,62.90
2019-05-03T11:58:05.973Z,60.50
2019-05-03T12:00:39.489Z,63.20
2019-05-03T12:03:11.624Z,60.30
2019-05-03T12:05:43.729Z,59.10
2019-05-03T12:08:14.774Z,58.20
2019-05-03T12:10:55.170Z,59.50
2019-05-03T12:13:22.006Z,58.80
2019-05-03T12:15:52.517Z,61.60
2019-05-03T12:18:25.272Z,58.90
2019-05-03T12:20:58.108Z,62.00
2019-05-03T12:23:31.554Z,63.00
2019-05-03T12:26:01.465Z,64.10
2019-05-03T12:28:32.382Z,65.90
2019-05-03T12:31:04.815Z,67.20
2019-05-03T12:33:35.597Z,66.20
2019-05-03T12:36:06.476Z,69.00
2019-05-03T12:38:36.949Z,67.20
2019-05-03T12:41:07.522Z,68.80
2019-05-03T12:43:38.016Z,69.90
2019-05-03T12:46:08.522Z,70.50
2019-05-03T12:48:38.983Z,71.40
2019-05-03T12:51:10.055Z,70.10
2019-05-03T12:53:40.972Z,71.00
2019-05-03T12:56:13.951Z,71.60
2019-05-03T12:58:57.412Z,70.60
2019-05-03T13:01:41.776Z,71.10
2019-05-03T13:04:11.983Z,70.70
2019-05-03T13:06:47.508Z,68.50
2019-05-03T13:09:18.051Z,68.40
2019-05-03T13:11:54.756Z,64.10
2019-05-03T13:14:22.496Z,58.40
2019-05-03T13:16:55.237Z,58.50
2019-05-03T13:19:25.942Z,59.50
2019-05-03T13:21:56.427Z,57.50
2019-05-03T13:24:26.908Z,56.60
2019-05-03T13:26:57.407Z,55.40
2019-05-03T13:29:27.864Z,53.00
2019-05-03T13:32:02.085Z,53.00
2019-05-03T13:34:35.201Z,50.70
2019-05-03T13:37:05.437Z,45.50
2019-05-03T13:39:36.134Z,45.10
2019-05-03T13:42:06.663Z,46.90
2019-05-03T13:44:37.155Z,48.90
2019-05-03T13:47:07.647Z,49.20
2019-05-03T13:49:38.120Z,48.50
2019-05-03T13:52:10.565Z,50.50
2019-05-03T13:54:41.092Z,50.10
2019-05-03T13:57:11.674Z,47.00
2019-05-03T13:59:42.174Z,48.70
2019-05-03T14:02:18.924Z,48.60
2019-05-03T14:04:52.338Z,51.10
2019-05-03T14:07:18.645Z,49.40
2019-05-03T14:09:49.153Z,50.60
2019-05-03T14:12:19.620Z,49.20
2019-05-03T14:14:57.236Z,47.60
2019-05-03T14:17:29.352Z,45.70
2019-05-03T14:20:01.565Z,48.30
2019-05-03T14:22:35.753Z,47.80
2019-05-03T14:25:07.465Z,50.10
2019-05-03T14:27:37.961Z,51.10
2019-05-03T14:30:09.906Z,50.30
2019-05-03T14:32:40.431Z,51.80
2019-05-03T14:35:10.994Z,52.90
2019-05-03T14:37:41.550Z,54.40
2019-05-03T14:40:14.499Z,52.40
2019-05-03T14:42:44.896Z,52.40
2019-05-03T14:45:16.348Z,51.50
2019-05-03T14:47:46.826Z,53.20
2019-05-03T14:50:17.481Z,54.80
2019-05-03T14:52:47.978Z,56.30
2019-05-03T14:55:30.519Z,57.30
2019-05-03T14:58:11.208Z,57.70
2019-05-03T15:00:45.174Z,58.00
2019-05-03T15:03:17.449Z,58.10
2019-05-03T15:05:47.913Z,57.50
2019-05-03T15:08:18.406Z,58.70
2019-05-03T15:10:48.911Z,59.70
2019-05-03T15:13:19.420Z,60.00
2019-05-03T15:15:49.878Z,60.50
2019-05-03T15:18:20.406Z,59.90
2019-05-03T15:20:50.903Z,61.80
2019-05-03T15:23:21.364Z,62.50
2019-05-03T15:25:54.641Z,63.50
2019-05-03T15:28:25.297Z,64.70
2019-05-03T15:30:55.770Z,63.00
2019-05-03T15:33:26.276Z,62.70
2019-05-03T15:35:56.758Z,64.00
2019-05-03T15:38:27.262Z,62.70
2019-05-03T15:40:57.816Z,61.50
2019-05-03T15:43:29.931Z,62.50
2019-05-03T15:46:08.029Z,61.20
2019-05-03T15:48:40.137Z,62.40
2019-05-03T15:51:10.625Z,63.70
2019-05-03T15:53:41.103Z,65.50
2019-05-03T15:56:14.829Z,65.90
2019-05-03T15:58:46.923Z,66.20
2019-05-03T16:01:17.560Z,66.10
2019-05-03T16:03:48.068Z,64.40
2019-05-03T16:06:18.629Z,64.10
2019-05-03T16:08:49.906Z,64.80
2019-05-03T16:11:20.404Z,64.00
2019-05-03T16:13:50.893Z,65.60
2019-05-03T16:16:21.432Z,68.70
2019-05-03T16:18:51.927Z,69.70
2019-05-03T16:21:22.390Z,70.20
2019-05-03T16:23:55.573Z,70.90
2019-05-03T16:26:27.853Z,70.90
2019-05-03T16:29:00.728Z,71.20
2019-05-03T16:31:34.461Z,71.40
2019-05-03T16:34:04.964Z,72.50
2019-05-03T16:36:36.857Z,73.00
2019-05-03T16:39:07.947Z,75.00
2019-05-03T16:41:38.443Z,76.90
2019-05-03T16:44:08.908Z,77.50
2019-05-03T16:46:39.412Z,78.30
2019-05-03T16:49:09.871Z,79.00
2019-05-03T16:51:40.370Z,78.70
2019-05-03T16:54:10.844Z,79.70
2019-05-03T16:56:44.315Z,80.70
2019-05-03T16:59:14.827Z,80.60
2019-05-03T17:01:46.595Z,80.80
2019-05-03T17:04:27.846Z,81.10
2019-05-03T17:07:16.099Z,80.40
2019-05-03T17:09:48.231Z,81.10
2019-05-03T17:12:20.342Z,81.10
2019-05-03T17:14:50.906Z,79.10
2019-05-03T17:17:25.292Z,79.90
2019-05-03T17:19:55.738Z,80.90
2019-05-03T17:22:26.248Z,82.10
2019-05-03T17:24:58.747Z,82.00
2019-05-03T17:27:29.311Z,83.10
2019-05-03T17:29:59.805Z,82.80
2019-05-03T17:32:30.293Z,82.80
2019-05-03T17:35:00.797Z,83.30
2019-05-03T17:37:31.274Z,84.20
2019-05-03T17:40:05.386Z,84.50
2019-05-03T17:42:54.719Z,85.50
2019-05-03T17:45:27.004Z,86.20
2019-05-03T17:47:57.516Z,87.20
2019-05-03T17:50:28.091Z,88.10
2019-05-03T17:53:16.584Z,89.20
2019-05-03T17:56:04.766Z,88.70
2019-05-03T18:01:35.698Z,89.40
2019-05-03T18:04:24.818Z,90.10
2019-05-03T18:07:14.969Z,90.00
2019-05-03T18:09:47.285Z,90.40
2019-05-03T18:12:17.749Z,90.20
2019-05-03T18:14:49.249Z,90.70
2019-05-03T18:17:20.055Z,91.10
2019-05-03T18:19:50.615Z,91.60
2019-05-03T18:22:21.094Z,92.00
2019-05-03T18:24:51.642Z,92.20
2019-05-03T18:27:22.137Z,92.50
2019-05-03T18:29:55.406Z,92.60
2019-05-03T18:32:26.116Z,92.80
2019-05-03T18:34:56.621Z,93.10
2019-05-03T18:37:27.083Z,92.90
2019-05-03T18:39:57.582Z,92.80
2019-05-03T18:42:30.827Z,92.60
2019-05-03T18:45:19.455Z,92.20
2019-05-03T18:47:49.918Z,92.20
2019-05-03T18:50:20.478Z,92.20
2019-05-03T18:52:50.947Z,92.40
2019-05-03T18:55:21.439Z,92.60
2019-05-03T18:57:51.908Z,92.60
2019-05-03T19:00:24.644Z,92.60
2019-05-03T19:02:55.285Z,92.80
2019-05-03T19:05:27.466Z,92.80
2019-05-03T19:07:59.587Z,92.80
2019-05-03T19:10:48.796Z,92.90
2019-05-03T19:13:23.563Z,93.20
2019-05-03T19:15:55.062Z,93.40
2019-05-03T19:18:27.344Z,93.30
2019-05-03T19:20:57.902Z,92.70
2019-05-03T19:23:28.457Z,92.50
2019-05-03T19:25:58.996Z,91.70
2019-05-03T19:28:29.486Z,91.90
2019-05-03T19:31:00.112Z,92.20
2019-05-03T19:33:30.595Z,92.10
2019-05-03T19:36:01.106Z,90.70
2019-05-03T19:38:31.698Z,90.50
2019-05-03T19:41:02.217Z,91.50
2019-05-03T19:43:32.702Z,91.30
2019-05-03T19:46:04.625Z,91.00
2019-05-03T19:48:35.437Z,91.00
2019-05-03T19:51:06.057Z,91.00
2019-05-03T19:53:50.138Z,90.90
2019-05-03T19:56:20.878Z,91.10
2019-05-03T19:58:55.248Z,91.20
2019-05-03T20:01:25.602Z,91.20
2019-05-03T20:04:15.086Z,91.50
2019-05-03T20:06:48.576Z,91.80
2019-05-03T20:09:24.494Z,92.10
2019-05-03T20:11:55.310Z,92.40
2019-05-03T20:14:25.955Z,92.60
2019-05-03T20:16:56.444Z,93.00
2019-05-03T20:19:26.931Z,93.20
2019-05-03T20:21:57.443Z,93.40
2019-05-03T20:24:27.917Z,93.80
2019-05-03T20:26:58.430Z,93.60
2019-05-03T20:29:28.906Z,93.80
2019-05-03T20:31:59.397Z,94.10
2019-05-03T20:34:29.891Z,94.30
2019-05-03T20:37:00.395Z,94.40
2019-05-03T20:39:30.871Z,94.30
2019-05-03T20:42:01.392Z,94.50
2019-05-03T20:44:35.393Z,94.60
2019-05-03T20:47:10.340Z,94.80
2019-05-03T20:49:40.804Z,95.00
2019-05-03T20:52:12.685Z,95.00
2019-05-03T20:54:44.792Z,95.10
2019-05-03T20:57:15.317Z,95.10
2019-05-03T20:59:49.394Z,95.00
2019-05-03T21:02:17.971Z,95.20
2019-05-03T21:04:48.474Z,95.00
2019-05-03T21:07:18.957Z,95.10
2019-05-03T21:09:49.453Z,95.40
2019-05-03T21:12:19.920Z,95.50
2019-05-03T21:14:50.410Z,95.50
2019-05-03T21:17:22.516Z,95.70
2019-05-03T21:19:57.319Z,95.70
2019-05-03T21:22:28.841Z,95.70
2019-05-03T21:25:12.931Z,95.80
2019-05-03T21:27:44.920Z,96.00
2019-05-03T21:30:15.563Z,95.90
2019-05-03T21:32:46.139Z,95.60
2019-05-03T21:35:16.745Z,95.60
2019-05-03T21:37:47.250Z,96.30
2019-05-03T21:40:17.792Z,96.60
2019-05-03T21:42:48.291Z,96.70
2019-05-03T21:45:20.391Z,96.90
2019-05-03T21:47:50.646Z,96.70
2019-05-03T21:50:22.157Z,97.00
2019-05-03T21:52:54.772Z,97.20
2019-05-03T21:55:26.464Z,97.50
2019-05-03T21:57:56.964Z,97.50
2019-05-03T22:00:30.846Z,97.50
2019-05-03T22:03:01.412Z,97.40
2019-05-03T22:05:33.127Z,97.50
2019-05-03T22:08:04.646Z,97.60
2019-05-03T22:10:35.206Z,97.80
2019-05-03T22:13:05.772Z,97.90
2019-05-03T22:15:41.031Z,97.90
2019-05-03T22:18:24.492Z,97.90
2019-05-03T22:20:56.222Z,97.70
2019-05-03T22:23:26.446Z,97.80
2019-05-03T22:25:57.095Z,97.90
2019-05-03T22:28:27.646Z,98.00
2019-05-03T22:30:58.092Z,98.10
2019-05-03T22:33:28.648Z,98.20
2019-05-03T22:36:08.200Z,98.30
2019-05-03T22:38:31.309Z,98.20
2019-05-03T22:41:01.757Z,98.40
2019-05-03T22:43:32.417Z,97.90
2019-05-03T22:46:02.896Z,97.60
2019-05-03T22:48:33.354Z,97.70
2019-05-03T22:51:04.817Z,98.10
2019-05-03T22:53:35.368Z,98.30
2019-05-03T22:56:05.839Z,98.20
2019-05-03T22:58:36.327Z,98.20
2019-05-03T23:01:06.769Z,98.20
2019-05-03T23:03:44.825Z,98.20
2019-05-03T23:06:21.949Z,98.30
2019-05-03T23:08:47.754Z,98.40
2019-05-03T23:11:18.255Z,98.40
2019-05-03T23:13:50.452Z,98.60
2019-05-03T23:16:21.740Z,98.50
2019-05-03T23:18:52.250Z,98.60
2019-05-03T23:21:24.467Z,98.30
2019-05-03T23:24:15.448Z,98.20
2019-05-03T23:26:45.987Z,98.40
2019-05-03T23:29:16.473Z,98.60
2019-05-03T23:31:46.934Z,98.80
2019-05-03T23:34:17.419Z,98.80
2019-05-03T23:36:48.245Z,98.70
2019-05-03T23:39:18.784Z,98.80
2019-05-03T23:41:49.255Z,98.70
2019-05-03T23:44:21.250Z,98.70
2019-05-03T23:47:02.273Z,98.70
2019-05-03T23:49:35.141Z,98.80
2019-05-03T23:52:25.228Z,98.80
2019-05-03T23:55:00.313Z,98.70
2019-05-03T23:57:32.771Z,98.70
